sensor_id;sensor_type;location;lat;lon;timestamp;P1;durP1;ratioP1;P2;durP2;ratioP2
24325;SDS011;12448;45.532;5.290;2022-07-23T00:01:31;12.15;;;7.40;;
24325;SDS011;12448;45.532;5.290;2022-07-23T00:03:57;13.77;;;6.55;;
24325;SDS011;12448;45.532;5.290;2022-07-23T00:06:23;10.13;;;6.75;;
24325;SDS011;12448;45.532;5.290;2022-07-23T00:08:50;13.18;;;6.88;;
24325;SDS011;12448;45.532;5.290;2022-07-23T00:11:16;7.90;;;5.93;;
24325;SDS011;12448;45.532;5.290;2022-07-23T00:13:42;10.40;;;5.97;;
24325;SDS011;12448;45.532;5.290;2022-07-23T00:16:08;7.57;;;5.95;;
24325;SDS011;12448;45.532;5.290;2022-07-23T00:18:34;11.43;;;5.80;;
24325;SDS011;12448;45.532;5.290;2022-07-23T00:21:00;9.02;;;5.75;;
24325;SDS011;12448;45.532;5.290;2022-07-23T00:23:25;10.52;;;5.78;;
24325;SDS011;12448;45.532;5.290;2022-07-23T00:25:53;8.65;;;6.30;;
24325;SDS011;12448;45.532;5.290;2022-07-23T00:28:19;9.35;;;6.22;;
24325;SDS011;12448;45.532;5.290;2022-07-23T00:30:45;8.65;;;6.10;;
24325;SDS011;12448;45.532;5.290;2022-07-23T00:33:10;12.07;;;5.78;;
24325;SDS011;12448;45.532;5.290;2022-07-23T00:35:37;10.45;;;5.75;;
24325;SDS011;12448;45.532;5.290;2022-07-23T00:38:06;10.02;;;6.03;;
24325;SDS011;12448;45.532;5.290;2022-07-23T00:40:33;11.10;;;6.10;;
24325;SDS011;12448;45.532;5.290;2022-07-23T00:42:59;9.98;;;5.68;;
24325;SDS011;12448;45.532;5.290;2022-07-23T00:45:25;7.93;;;6.22;;
24325;SDS011;12448;45.532;5.290;2022-07-23T00:47:51;8.85;;;5.65;;
24325;SDS011;12448;45.532;5.290;2022-07-23T00:50:17;12.18;;;6.30;;
24325;SDS011;12448;45.532;5.290;2022-07-23T00:52:43;14.68;;;6.72;;
24325;SDS011;12448;45.532;5.290;2022-07-23T00:55:10;11.10;;;6.75;;
24325;SDS011;12448;45.532;5.290;2022-07-23T00:57:37;9.77;;;5.78;;
24325;SDS011;12448;45.532;5.290;2022-07-23T01:00:04;10.38;;;5.90;;
24325;SDS011;12448;45.532;5.290;2022-07-23T01:02:31;9.02;;;6.03;;
24325;SDS011;12448;45.532;5.290;2022-07-23T01:04:57;10.50;;;6.28;;
24325;SDS011;12448;45.532;5.290;2022-07-23T01:07:22;11.48;;;6.70;;
24325;SDS011;12448;45.532;5.290;2022-07-23T01:09:48;12.07;;;7.50;;
24325;SDS011;12448;45.532;5.290;2022-07-23T01:12:15;9.48;;;6.47;;
24325;SDS011;12448;45.532;5.290;2022-07-23T01:14:41;9.65;;;6.78;;
24325;SDS011;12448;45.532;5.290;2022-07-23T01:17:07;10.43;;;7.25;;
24325;SDS011;12448;45.532;5.290;2022-07-23T01:19:32;8.82;;;7.38;;
24325;SDS011;12448;45.532;5.290;2022-07-23T01:21:58;12.52;;;7.93;;
24325;SDS011;12448;45.532;5.290;2022-07-23T01:24:27;12.15;;;8.50;;
24325;SDS011;12448;45.532;5.290;2022-07-23T01:26:52;12.45;;;9.60;;
24325;SDS011;12448;45.532;5.290;2022-07-23T01:29:18;13.23;;;9.80;;
24325;SDS011;12448;45.532;5.290;2022-07-23T01:31:46;14.40;;;9.52;;
24325;SDS011;12448;45.532;5.290;2022-07-23T01:34:12;12.20;;;9.48;;
24325;SDS011;12448;45.532;5.290;2022-07-23T01:36:39;13.73;;;9.45;;
24325;SDS011;12448;45.532;5.290;2022-07-23T01:39:05;13.10;;;9.90;;
24325;SDS011;12448;45.532;5.290;2022-07-23T01:41:32;12.95;;;9.38;;
24325;SDS011;12448;45.532;5.290;2022-07-23T01:43:57;15.85;;;9.98;;
24325;SDS011;12448;45.532;5.290;2022-07-23T01:46:23;14.15;;;9.43;;
24325;SDS011;12448;45.532;5.290;2022-07-23T01:48:49;12.18;;;10.43;;
24325;SDS011;12448;45.532;5.290;2022-07-23T01:51:15;14.63;;;10.10;;
24325;SDS011;12448;45.532;5.290;2022-07-23T01:53:40;13.38;;;9.75;;
24325;SDS011;12448;45.532;5.290;2022-07-23T01:56:07;12.80;;;10.02;;
24325;SDS011;12448;45.532;5.290;2022-07-23T01:58:32;16.25;;;10.73;;
24325;SDS011;12448;45.532;5.290;2022-07-23T02:00:58;13.98;;;10.48;;
24325;SDS011;12448;45.532;5.290;2022-07-23T02:03:24;15.60;;;10.30;;
24325;SDS011;12448;45.532;5.290;2022-07-23T02:05:50;14.13;;;9.95;;
24325;SDS011;12448;45.532;5.290;2022-07-23T02:08:16;12.38;;;9.98;;
24325;SDS011;12448;45.532;5.290;2022-07-23T02:10:42;16.13;;;10.35;;
24325;SDS011;12448;45.532;5.290;2022-07-23T02:13:08;13.10;;;9.95;;
24325;SDS011;12448;45.532;5.290;2022-07-23T02:15:34;13.35;;;9.68;;
24325;SDS011;12448;45.532;5.290;2022-07-23T02:18:00;16.05;;;9.30;;
24325;SDS011;12448;45.532;5.290;2022-07-23T02:20:25;12.07;;;9.32;;
24325;SDS011;12448;45.532;5.290;2022-07-23T02:22:51;14.30;;;9.63;;
24325;SDS011;12448;45.532;5.290;2022-07-23T02:25:17;16.70;;;11.10;;
24325;SDS011;12448;45.532;5.290;2022-07-23T02:27:43;13.25;;;10.93;;
24325;SDS011;12448;45.532;5.290;2022-07-23T02:30:09;15.98;;;10.40;;
24325;SDS011;12448;45.532;5.290;2022-07-23T02:32:35;14.30;;;9.52;;
24325;SDS011;12448;45.532;5.290;2022-07-23T02:35:01;18.33;;;10.23;;
24325;SDS011;12448;45.532;5.290;2022-07-23T02:37:27;27.48;;;11.20;;
24325;SDS011;12448;45.532;5.290;2022-07-23T02:39:53;16.20;;;10.43;;
24325;SDS011;12448;45.532;5.290;2022-07-23T02:42:19;14.52;;;9.63;;
24325;SDS011;12448;45.532;5.290;2022-07-23T02:44:44;15.32;;;11.18;;
24325;SDS011;12448;45.532;5.290;2022-07-23T02:47:10;13.27;;;9.75;;
24325;SDS011;12448;45.532;5.290;2022-07-23T02:49:36;14.43;;;10.70;;
24325;SDS011;12448;45.532;5.290;2022-07-23T02:52:02;15.95;;;11.38;;
24325;SDS011;12448;45.532;5.290;2022-07-23T02:54:28;15.20;;;10.93;;
24325;SDS011;12448;45.532;5.290;2022-07-23T02:56:53;16.27;;;10.07;;
24325;SDS011;12448;45.532;5.290;2022-07-23T02:59:19;11.65;;;10.45;;
24325;SDS011;12448;45.532;5.290;2022-07-23T03:01:45;11.60;;;9.55;;
24325;SDS011;12448;45.532;5.290;2022-07-23T03:04:11;16.58;;;8.90;;
24325;SDS011;12448;45.532;5.290;2022-07-23T03:06:37;13.77;;;9.20;;
24325;SDS011;12448;45.532;5.290;2022-07-23T03:09:03;12.73;;;9.30;;
24325;SDS011;12448;45.532;5.290;2022-07-23T03:11:29;12.20;;;9.38;;
24325;SDS011;12448;45.532;5.290;2022-07-23T03:13:55;13.98;;;8.80;;
24325;SDS011;12448;45.532;5.290;2022-07-23T03:16:21;12.82;;;9.35;;
24325;SDS011;12448;45.532;5.290;2022-07-23T03:18:46;12.27;;;8.82;;
24325;SDS011;12448;45.532;5.290;2022-07-23T03:21:12;13.93;;;8.73;;
24325;SDS011;12448;45.532;5.290;2022-07-23T03:23:38;15.18;;;8.20;;
24325;SDS011;12448;45.532;5.290;2022-07-23T03:26:03;14.27;;;7.97;;
24325;SDS011;12448;45.532;5.290;2022-07-23T03:28:29;13.50;;;8.68;;
24325;SDS011;12448;45.532;5.290;2022-07-23T03:30:55;9.70;;;8.57;;
24325;SDS011;12448;45.532;5.290;2022-07-23T03:33:21;11.90;;;8.75;;
24325;SDS011;12448;45.532;5.290;2022-07-23T03:35:47;11.77;;;8.88;;
24325;SDS011;12448;45.532;5.290;2022-07-23T03:38:14;11.52;;;8.98;;
24325;SDS011;12448;45.532;5.290;2022-07-23T03:40:40;11.55;;;8.70;;
24325;SDS011;12448;45.532;5.290;2022-07-23T03:43:11;12.15;;;8.50;;
24325;SDS011;12448;45.532;5.290;2022-07-23T03:45:39;11.10;;;8.05;;
24325;SDS011;12448;45.532;5.290;2022-07-23T03:48:05;12.02;;;8.18;;
24325;SDS011;12448;45.532;5.290;2022-07-23T03:50:31;12.32;;;8.25;;
24325;SDS011;12448;45.532;5.290;2022-07-23T03:52:57;12.65;;;8.93;;
24325;SDS011;12448;45.532;5.290;2022-07-23T03:55:22;10.25;;;8.15;;
24325;SDS011;12448;45.532;5.290;2022-07-23T03:57:54;13.80;;;9.00;;
24325;SDS011;12448;45.532;5.290;2022-07-23T04:00:20;10.82;;;8.35;;
24325;SDS011;12448;45.532;5.290;2022-07-23T04:02:58;12.65;;;8.52;;
24325;SDS011;12448;45.532;5.290;2022-07-23T04:05:33;14.73;;;8.48;;
24325;SDS011;12448;45.532;5.290;2022-07-23T04:08:08;12.60;;;8.90;;
24325;SDS011;12448;45.532;5.290;2022-07-23T04:10:51;11.52;;;9.15;;
24325;SDS011;12448;45.532;5.290;2022-07-23T04:13:20;12.48;;;9.45;;
24325;SDS011;12448;45.532;5.290;2022-07-23T04:19:17;15.48;;;10.18;;
24325;SDS011;12448;45.532;5.290;2022-07-23T04:21:43;11.85;;;9.90;;
24325;SDS011;12448;45.532;5.290;2022-07-23T04:24:14;14.88;;;9.90;;
24325;SDS011;12448;45.532;5.290;2022-07-23T04:26:45;11.18;;;8.77;;
24325;SDS011;12448;45.532;5.290;2022-07-23T04:29:39;14.05;;;9.00;;
24325;SDS011;12448;45.532;5.290;2022-07-23T04:32:05;10.23;;;8.90;;
24325;SDS011;12448;45.532;5.290;2022-07-23T04:34:33;12.35;;;9.15;;
24325;SDS011;12448;45.532;5.290;2022-07-23T04:36:59;13.05;;;9.18;;
24325;SDS011;12448;45.532;5.290;2022-07-23T04:39:25;11.90;;;9.00;;
24325;SDS011;12448;45.532;5.290;2022-07-23T04:41:50;12.40;;;9.57;;
24325;SDS011;12448;45.532;5.290;2022-07-23T04:44:16;13.65;;;10.48;;
24325;SDS011;12448;45.532;5.290;2022-07-23T04:46:42;14.32;;;9.63;;
24325;SDS011;12448;45.532;5.290;2022-07-23T04:49:11;13.23;;;9.35;;
24325;SDS011;12448;45.532;5.290;2022-07-23T04:51:36;14.07;;;9.52;;
24325;SDS011;12448;45.532;5.290;2022-07-23T04:54:02;13.63;;;9.73;;
24325;SDS011;12448;45.532;5.290;2022-07-23T04:56:31;12.88;;;9.30;;
24325;SDS011;12448;45.532;5.290;2022-07-23T04:58:57;14.93;;;9.00;;
24325;SDS011;12448;45.532;5.290;2022-07-23T05:01:22;12.43;;;8.63;;
24325;SDS011;12448;45.532;5.290;2022-07-23T05:03:48;9.82;;;8.55;;
24325;SDS011;12448;45.532;5.290;2022-07-23T05:06:14;14.52;;;8.85;;
24325;SDS011;12448;45.532;5.290;2022-07-23T05:08:40;14.60;;;8.10;;
24325;SDS011;12448;45.532;5.290;2022-07-23T05:11:06;15.20;;;8.77;;
24325;SDS011;12448;45.532;5.290;2022-07-23T05:13:31;9.52;;;8.10;;
24325;SDS011;12448;45.532;5.290;2022-07-23T05:15:57;12.93;;;8.20;;
24325;SDS011;12448;45.532;5.290;2022-07-23T05:18:22;10.10;;;8.05;;
24325;SDS011;12448;45.532;5.290;2022-07-23T05:20:48;9.82;;;8.02;;
24325;SDS011;12448;45.532;5.290;2022-07-23T05:23:14;13.05;;;8.63;;
24325;SDS011;12448;45.532;5.290;2022-07-23T05:25:40;14.45;;;8.52;;
24325;SDS011;12448;45.532;5.290;2022-07-23T05:28:05;12.77;;;8.63;;
24325;SDS011;12448;45.532;5.290;2022-07-23T05:30:31;13.30;;;8.27;;
24325;SDS011;12448;45.532;5.290;2022-07-23T05:32:57;12.60;;;8.70;;
24325;SDS011;12448;45.532;5.290;2022-07-23T05:35:22;12.15;;;8.88;;
24325;SDS011;12448;45.532;5.290;2022-07-23T05:37:48;11.02;;;8.40;;
24325;SDS011;12448;45.532;5.290;2022-07-23T05:40:14;9.98;;;8.93;;
24325;SDS011;12448;45.532;5.290;2022-07-23T05:42:40;10.65;;;8.43;;
24325;SDS011;12448;45.532;5.290;2022-07-23T05:45:07;14.23;;;9.20;;
24325;SDS011;12448;45.532;5.290;2022-07-23T05:47:42;11.05;;;8.68;;
24325;SDS011;12448;45.532;5.290;2022-07-23T05:50:09;10.73;;;8.52;;
24325;SDS011;12448;45.532;5.290;2022-07-23T05:52:35;10.15;;;8.57;;
24325;SDS011;12448;45.532;5.290;2022-07-23T05:55:01;12.98;;;9.30;;
24325;SDS011;12448;45.532;5.290;2022-07-23T05:57:27;12.75;;;9.38;;
24325;SDS011;12448;45.532;5.290;2022-07-23T05:59:53;11.75;;;8.95;;
24325;SDS011;12448;45.532;5.290;2022-07-23T06:02:19;11.70;;;9.52;;
24325;SDS011;12448;45.532;5.290;2022-07-23T06:04:44;16.17;;;9.38;;
24325;SDS011;12448;45.532;5.290;2022-07-23T06:07:11;11.90;;;9.07;;
24325;SDS011;12448;45.532;5.290;2022-07-23T06:09:37;12.00;;;9.52;;
24325;SDS011;12448;45.532;5.290;2022-07-23T06:12:02;15.13;;;9.65;;
24325;SDS011;12448;45.532;5.290;2022-07-23T06:14:28;12.73;;;9.35;;
24325;SDS011;12448;45.532;5.290;2022-07-23T06:16:54;11.70;;;8.82;;
24325;SDS011;12448;45.532;5.290;2022-07-23T06:19:19;12.02;;;9.05;;
24325;SDS011;12448;45.532;5.290;2022-07-23T06:21:45;15.30;;;9.30;;
24325;SDS011;12448;45.532;5.290;2022-07-23T06:24:11;11.45;;;9.32;;
24325;SDS011;12448;45.532;5.290;2022-07-23T06:26:36;13.18;;;10.18;;
24325;SDS011;12448;45.532;5.290;2022-07-23T06:29:02;12.90;;;10.25;;
24325;SDS011;12448;45.532;5.290;2022-07-23T06:31:27;13.18;;;10.27;;
24325;SDS011;12448;45.532;5.290;2022-07-23T06:33:53;15.98;;;10.40;;
24325;SDS011;12448;45.532;5.290;2022-07-23T06:36:19;14.60;;;9.63;;
24325;SDS011;12448;45.532;5.290;2022-07-23T06:38:45;13.15;;;9.82;;
24325;SDS011;12448;45.532;5.290;2022-07-23T06:41:11;13.63;;;9.43;;
24325;SDS011;12448;45.532;5.290;2022-07-23T06:43:36;14.88;;;10.32;;
24325;SDS011;12448;45.532;5.290;2022-07-23T06:46:02;11.18;;;9.98;;
24325;SDS011;12448;45.532;5.290;2022-07-23T06:48:28;16.83;;;10.48;;
24325;SDS011;12448;45.532;5.290;2022-07-23T06:50:54;15.05;;;10.48;;
24325;SDS011;12448;45.532;5.290;2022-07-23T06:53:20;12.07;;;10.35;;
24325;SDS011;12448;45.532;5.290;2022-07-23T06:55:46;13.88;;;9.80;;
24325;SDS011;12448;45.532;5.290;2022-07-23T06:58:11;14.27;;;10.27;;
24325;SDS011;12448;45.532;5.290;2022-07-23T07:00:38;12.85;;;9.88;;
24325;SDS011;12448;45.532;5.290;2022-07-23T07:03:04;9.93;;;8.90;;
24325;SDS011;12448;45.532;5.290;2022-07-23T07:05:30;10.48;;;9.27;;
24325;SDS011;12448;45.532;5.290;2022-07-23T07:07:56;13.60;;;9.82;;
24325;SDS011;12448;45.532;5.290;2022-07-23T07:10:22;10.77;;;9.00;;
24325;SDS011;12448;45.532;5.290;2022-07-23T07:12:48;13.35;;;9.18;;
24325;SDS011;12448;45.532;5.290;2022-07-23T07:15:14;12.30;;;9.20;;
24325;SDS011;12448;45.532;5.290;2022-07-23T07:17:39;13.05;;;8.95;;
24325;SDS011;12448;45.532;5.290;2022-07-23T07:20:07;12.63;;;8.63;;
24325;SDS011;12448;45.532;5.290;2022-07-23T07:22:33;13.70;;;9.82;;
24325;SDS011;12448;45.532;5.290;2022-07-23T07:24:59;14.05;;;9.27;;
24325;SDS011;12448;45.532;5.290;2022-07-23T07:27:24;10.93;;;8.70;;
24325;SDS011;12448;45.532;5.290;2022-07-23T07:29:50;11.77;;;9.57;;
24325;SDS011;12448;45.532;5.290;2022-07-23T07:32:16;11.23;;;9.75;;
24325;SDS011;12448;45.532;5.290;2022-07-23T07:34:42;11.70;;;9.32;;
24325;SDS011;12448;45.532;5.290;2022-07-23T07:37:07;11.10;;;9.48;;
24325;SDS011;12448;45.532;5.290;2022-07-23T07:39:33;11.07;;;9.68;;
24325;SDS011;12448;45.532;5.290;2022-07-23T07:41:59;9.95;;;8.52;;
24325;SDS011;12448;45.532;5.290;2022-07-23T07:44:25;13.77;;;9.93;;
24325;SDS011;12448;45.532;5.290;2022-07-23T07:46:50;14.43;;;10.32;;
24325;SDS011;12448;45.532;5.290;2022-07-23T07:49:16;16.73;;;9.90;;
24325;SDS011;12448;45.532;5.290;2022-07-23T07:51:44;10.75;;;8.90;;
24325;SDS011;12448;45.532;5.290;2022-07-23T07:54:10;12.07;;;9.57;;
24325;SDS011;12448;45.532;5.290;2022-07-23T07:56:36;15.18;;;9.40;;
24325;SDS011;12448;45.532;5.290;2022-07-23T07:59:02;12.70;;;9.30;;
24325;SDS011;12448;45.532;5.290;2022-07-23T08:01:27;11.25;;;9.10;;
24325;SDS011;12448;45.532;5.290;2022-07-23T08:03:53;14.65;;;9.43;;
24325;SDS011;12448;45.532;5.290;2022-07-23T08:06:19;11.85;;;8.45;;
24325;SDS011;12448;45.532;5.290;2022-07-23T08:08:44;15.45;;;9.57;;
24325;SDS011;12448;45.532;5.290;2022-07-23T08:11:10;13.70;;;9.25;;
24325;SDS011;12448;45.532;5.290;2022-07-23T08:13:36;11.75;;;9.10;;
24325;SDS011;12448;45.532;5.290;2022-07-23T08:16:01;13.27;;;10.07;;
24325;SDS011;12448;45.532;5.290;2022-07-23T08:18:27;13.82;;;9.70;;
24325;SDS011;12448;45.532;5.290;2022-07-23T08:20:53;14.93;;;10.48;;
24325;SDS011;12448;45.532;5.290;2022-07-23T08:23:19;12.73;;;9.88;;
24325;SDS011;12448;45.532;5.290;2022-07-23T08:25:44;15.35;;;9.27;;
24325;SDS011;12448;45.532;5.290;2022-07-23T08:28:12;16.08;;;9.88;;
24325;SDS011;12448;45.532;5.290;2022-07-23T08:30:39;13.55;;;10.38;;
24325;SDS011;12448;45.532;5.290;2022-07-23T08:33:09;15.73;;;10.13;;
24325;SDS011;12448;45.532;5.290;2022-07-23T08:35:39;16.67;;;10.25;;
24325;SDS011;12448;45.532;5.290;2022-07-23T08:38:07;13.15;;;10.35;;
24325;SDS011;12448;45.532;5.290;2022-07-23T08:40:39;13.15;;;10.10;;
24325;SDS011;12448;45.532;5.290;2022-07-23T08:43:07;17.17;;;10.70;;
24325;SDS011;12448;45.532;5.290;2022-07-23T08:45:35;15.95;;;10.50;;
24325;SDS011;12448;45.532;5.290;2022-07-23T08:48:04;15.30;;;10.23;;
24325;SDS011;12448;45.532;5.290;2022-07-23T08:50:35;13.98;;;10.07;;
24325;SDS011;12448;45.532;5.290;2022-07-23T08:53:02;12.68;;;9.00;;
24325;SDS011;12448;45.532;5.290;2022-07-23T08:55:31;12.70;;;10.00;;
24325;SDS011;12448;45.532;5.290;2022-07-23T08:57:57;11.77;;;9.32;;
24325;SDS011;12448;45.532;5.290;2022-07-23T09:00:22;12.52;;;8.98;;
24325;SDS011;12448;45.532;5.290;2022-07-23T09:02:48;13.15;;;8.52;;
24325;SDS011;12448;45.532;5.290;2022-07-23T09:05:15;11.30;;;10.10;;
24325;SDS011;12448;45.532;5.290;2022-07-23T09:10:46;14.68;;;11.13;;
24325;SDS011;12448;45.532;5.290;2022-07-23T09:13:33;14.93;;;10.18;;
24325;SDS011;12448;45.532;5.290;2022-07-23T09:16:02;12.85;;;9.73;;
24325;SDS011;12448;45.532;5.290;2022-07-23T09:21:07;14.77;;;10.10;;
24325;SDS011;12448;45.532;5.290;2022-07-23T09:23:42;13.90;;;10.02;;
24325;SDS011;12448;45.532;5.290;2022-07-23T09:28:54;10.55;;;9.50;;
24325;SDS011;12448;45.532;5.290;2022-07-23T09:31:25;12.55;;;9.48;;
24325;SDS011;12448;45.532;5.290;2022-07-23T09:34:40;11.75;;;8.77;;
24325;SDS011;12448;45.532;5.290;2022-07-23T09:36:49;8.57;;;7.45;;
24325;SDS011;12448;45.532;5.290;2022-07-23T09:39:22;13.73;;;8.48;;
24325;SDS011;12448;45.532;5.290;2022-07-23T09:41:54;10.27;;;8.23;;
24325;SDS011;12448;45.532;5.290;2022-07-23T09:44:20;8.52;;;7.13;;
24325;SDS011;12448;45.532;5.290;2022-07-23T09:46:47;10.05;;;8.27;;
24325;SDS011;12448;45.532;5.290;2022-07-23T09:49:21;11.43;;;8.02;;
24325;SDS011;12448;45.532;5.290;2022-07-23T09:51:49;10.32;;;8.48;;
24325;SDS011;12448;45.532;5.290;2022-07-23T09:56:59;11.00;;;8.45;;
24325;SDS011;12448;45.532;5.290;2022-07-23T09:59:27;11.32;;;8.85;;
24325;SDS011;12448;45.532;5.290;2022-07-23T10:01:55;11.20;;;7.93;;
24325;SDS011;12448;45.532;5.290;2022-07-23T10:04:24;10.05;;;8.27;;
24325;SDS011;12448;45.532;5.290;2022-07-23T10:06:52;15.18;;;9.15;;
24325;SDS011;12448;45.532;5.290;2022-07-23T10:09:22;10.18;;;9.07;;
24325;SDS011;12448;45.532;5.290;2022-07-23T10:11:54;10.15;;;8.75;;
24325;SDS011;12448;45.532;5.290;2022-07-23T10:14:29;14.52;;;10.05;;
24325;SDS011;12448;45.532;5.290;2022-07-23T10:16:57;11.75;;;8.18;;
24325;SDS011;12448;45.532;5.290;2022-07-23T10:19:24;10.02;;;8.23;;
24325;SDS011;12448;45.532;5.290;2022-07-23T10:21:58;10.48;;;7.47;;
24325;SDS011;12448;45.532;5.290;2022-07-23T10:27:49;11.75;;;8.85;;
24325;SDS011;12448;45.532;5.290;2022-07-23T10:41:38;10.30;;;7.90;;
24325;SDS011;12448;45.532;5.290;2022-07-23T10:44:08;12.80;;;7.75;;
24325;SDS011;12448;45.532;5.290;2022-07-23T10:46:35;10.10;;;7.93;;
24325;SDS011;12448;45.532;5.290;2022-07-23T10:49:20;15.05;;;8.30;;
24325;SDS011;12448;45.532;5.290;2022-07-23T10:54:38;11.85;;;7.85;;
24325;SDS011;12448;45.532;5.290;2022-07-23T10:57:05;11.55;;;7.32;;
24325;SDS011;12448;45.532;5.290;2022-07-23T11:02:43;11.90;;;7.97;;
24325;SDS011;12448;45.532;5.290;2022-07-23T11:05:12;10.52;;;8.27;;
24325;SDS011;12448;45.532;5.290;2022-07-23T11:10:31;15.35;;;7.95;;
24325;SDS011;12448;45.532;5.290;2022-07-23T11:16:03;10.38;;;7.55;;
24325;SDS011;12448;45.532;5.290;2022-07-23T11:31:57;13.98;;;8.25;;
24325;SDS011;12448;45.532;5.290;2022-07-23T11:34:33;13.95;;;7.40;;
24325;SDS011;12448;45.532;5.290;2022-07-23T11:37:09;11.68;;;7.47;;
24325;SDS011;12448;45.532;5.290;2022-07-23T11:39:36;10.18;;;7.45;;
24325;SDS011;12448;45.532;5.290;2022-07-23T11:42:04;8.57;;;7.68;;
24325;SDS011;12448;45.532;5.290;2022-07-23T11:47:07;11.20;;;7.78;;
24325;SDS011;12448;45.532;5.290;2022-07-23T11:49:34;13.18;;;7.68;;
24325;SDS011;12448;45.532;5.290;2022-07-23T11:52:11;12.57;;;8.38;;
24325;SDS011;12448;45.532;5.290;2022-07-23T11:57:16;10.18;;;7.80;;
24325;SDS011;12448;45.532;5.290;2022-07-23T11:59:43;11.32;;;7.60;;
24325;SDS011;12448;45.532;5.290;2022-07-23T12:02:12;9.93;;;7.60;;
24325;SDS011;12448;45.532;5.290;2022-07-23T12:04:44;10.63;;;7.30;;
24325;SDS011;12448;45.532;5.290;2022-07-23T12:09:49;9.88;;;7.25;;
24325;SDS011;12448;45.532;5.290;2022-07-23T12:12:15;9.13;;;7.38;;
24325;SDS011;12448;45.532;5.290;2022-07-23T12:14:47;11.23;;;7.38;;
24325;SDS011;12448;45.532;5.290;2022-07-23T12:17:14;12.18;;;7.97;;
24325;SDS011;12448;45.532;5.290;2022-07-23T12:19:39;9.18;;;7.47;;
24325;SDS011;12448;45.532;5.290;2022-07-23T12:22:06;13.73;;;7.45;;
24325;SDS011;12448;45.532;5.290;2022-07-23T12:24:51;11.18;;;7.00;;
24325;SDS011;12448;45.532;5.290;2022-07-23T12:27:36;11.13;;;7.40;;
24325;SDS011;12448;45.532;5.290;2022-07-23T12:30:18;10.63;;;7.97;;
24325;SDS011;12448;45.532;5.290;2022-07-23T12:32:46;12.07;;;8.40;;
24325;SDS011;12448;45.532;5.290;2022-07-23T12:35:13;8.80;;;7.90;;
24325;SDS011;12448;45.532;5.290;2022-07-23T12:37:40;12.48;;;7.50;;
24325;SDS011;12448;45.532;5.290;2022-07-23T12:40:23;14.80;;;7.93;;
24325;SDS011;12448;45.532;5.290;2022-07-23T12:42:53;9.13;;;7.13;;
24325;SDS011;12448;45.532;5.290;2022-07-23T12:45:19;9.80;;;7.32;;
24325;SDS011;12448;45.532;5.290;2022-07-23T12:50:33;11.57;;;6.95;;
24325;SDS011;12448;45.532;5.290;2022-07-23T12:53:09;8.60;;;7.55;;
24325;SDS011;12448;45.532;5.290;2022-07-23T12:55:41;7.60;;;6.80;;
24325;SDS011;12448;45.532;5.290;2022-07-23T12:58:18;10.27;;;6.70;;
24325;SDS011;12448;45.532;5.290;2022-07-23T13:00:52;8.52;;;6.97;;
24325;SDS011;12448;45.532;5.290;2022-07-23T13:06:19;11.40;;;6.35;;
24325;SDS011;12448;45.532;5.290;2022-07-23T13:08:44;7.80;;;6.95;;
24325;SDS011;12448;45.532;5.290;2022-07-23T13:11:10;11.45;;;7.85;;
24325;SDS011;12448;45.532;5.290;2022-07-23T13:13:35;13.52;;;7.40;;
24325;SDS011;12448;45.532;5.290;2022-07-23T13:16:01;15.35;;;9.68;;
24325;SDS011;12448;45.532;5.290;2022-07-23T13:18:28;17.42;;;9.48;;
24325;SDS011;12448;45.532;5.290;2022-07-23T13:20:54;10.85;;;7.45;;
24325;SDS011;12448;45.532;5.290;2022-07-23T13:23:20;8.52;;;6.85;;
24325;SDS011;12448;45.532;5.290;2022-07-23T13:25:47;11.02;;;7.32;;
24325;SDS011;12448;45.532;5.290;2022-07-23T13:28:14;11.13;;;6.88;;
24325;SDS011;12448;45.532;5.290;2022-07-23T13:30:40;9.32;;;7.80;;
24325;SDS011;12448;45.532;5.290;2022-07-23T13:33:07;10.25;;;6.90;;
24325;SDS011;12448;45.532;5.290;2022-07-23T13:35:33;7.97;;;7.18;;
24325;SDS011;12448;45.532;5.290;2022-07-23T13:38:00;9.43;;;7.07;;
24325;SDS011;12448;45.532;5.290;2022-07-23T13:40:25;10.85;;;7.22;;
24325;SDS011;12448;45.532;5.290;2022-07-23T13:42:51;8.20;;;7.32;;
24325;SDS011;12448;45.532;5.290;2022-07-23T13:45:17;9.38;;;7.10;;
24325;SDS011;12448;45.532;5.290;2022-07-23T13:47:43;12.15;;;7.32;;
24325;SDS011;12448;45.532;5.290;2022-07-23T13:50:08;12.75;;;7.50;;
24325;SDS011;12448;45.532;5.290;2022-07-23T13:52:34;10.18;;;6.78;;
24325;SDS011;12448;45.532;5.290;2022-07-23T13:55:00;9.45;;;7.75;;
24325;SDS011;12448;45.532;5.290;2022-07-23T13:57:28;9.13;;;6.85;;
24325;SDS011;12448;45.532;5.290;2022-07-23T13:59:54;12.85;;;6.93;;
24325;SDS011;12448;45.532;5.290;2022-07-23T14:02:20;12.32;;;7.10;;
24325;SDS011;12448;45.532;5.290;2022-07-23T14:04:46;11.32;;;7.00;;
24325;SDS011;12448;45.532;5.290;2022-07-23T14:07:11;8.35;;;6.50;;
24325;SDS011;12448;45.532;5.290;2022-07-23T14:09:37;8.90;;;7.13;;
24325;SDS011;12448;45.532;5.290;2022-07-23T14:12:03;11.00;;;7.32;;
24325;SDS011;12448;45.532;5.290;2022-07-23T14:14:30;10.20;;;7.28;;
24325;SDS011;12448;45.532;5.290;2022-07-23T14:16:55;9.60;;;6.03;;
24325;SDS011;12448;45.532;5.290;2022-07-23T14:19:21;8.57;;;6.90;;
24325;SDS011;12448;45.532;5.290;2022-07-23T14:21:47;12.07;;;7.57;;
24325;SDS011;12448;45.532;5.290;2022-07-23T14:24:13;9.68;;;6.97;;
24325;SDS011;12448;45.532;5.290;2022-07-23T14:26:39;10.85;;;6.68;;
24325;SDS011;12448;45.532;5.290;2022-07-23T14:29:05;9.48;;;6.53;;
24325;SDS011;12448;45.532;5.290;2022-07-23T14:31:31;9.63;;;7.05;;
24325;SDS011;12448;45.532;5.290;2022-07-23T14:33:57;8.85;;;7.47;;
24325;SDS011;12448;45.532;5.290;2022-07-23T14:36:24;7.38;;;6.40;;
24325;SDS011;12448;45.532;5.290;2022-07-23T14:38:50;10.68;;;7.05;;
24325;SDS011;12448;45.532;5.290;2022-07-23T14:41:16;7.60;;;6.78;;
24325;SDS011;12448;45.532;5.290;2022-07-23T14:43:41;10.32;;;7.20;;
24325;SDS011;12448;45.532;5.290;2022-07-23T14:46:08;8.85;;;6.50;;
24325;SDS011;12448;45.532;5.290;2022-07-23T14:48:33;8.93;;;6.43;;
24325;SDS011;12448;45.532;5.290;2022-07-23T14:50:59;10.18;;;6.80;;
24325;SDS011;12448;45.532;5.290;2022-07-23T14:53:25;9.68;;;6.72;;
24325;SDS011;12448;45.532;5.290;2022-07-23T14:55:50;9.23;;;7.20;;
24325;SDS011;12448;45.532;5.290;2022-07-23T14:58:16;8.73;;;6.93;;
24325;SDS011;12448;45.532;5.290;2022-07-23T15:00:42;8.32;;;6.47;;
24325;SDS011;12448;45.532;5.290;2022-07-23T15:03:08;9.90;;;6.70;;
24325;SDS011;12448;45.532;5.290;2022-07-23T15:05:33;9.02;;;6.30;;
24325;SDS011;12448;45.532;5.290;2022-07-23T15:07:59;10.80;;;6.90;;
24325;SDS011;12448;45.532;5.290;2022-07-23T15:10:25;11.15;;;6.60;;
24325;SDS011;12448;45.532;5.290;2022-07-23T15:12:51;6.68;;;5.97;;
24325;SDS011;12448;45.532;5.290;2022-07-23T15:15:16;10.48;;;6.45;;
24325;SDS011;12448;45.532;5.290;2022-07-23T15:17:43;9.35;;;6.50;;
24325;SDS011;12448;45.532;5.290;2022-07-23T15:20:09;7.88;;;6.05;;
24325;SDS011;12448;45.532;5.290;2022-07-23T15:22:35;10.85;;;6.13;;
24325;SDS011;12448;45.532;5.290;2022-07-23T15:25:00;7.72;;;6.10;;
24325;SDS011;12448;45.532;5.290;2022-07-23T15:27:27;8.30;;;6.20;;
24325;SDS011;12448;45.532;5.290;2022-07-23T15:29:52;7.50;;;5.55;;
24325;SDS011;12448;45.532;5.290;2022-07-23T15:32:18;8.50;;;5.50;;
24325;SDS011;12448;45.532;5.290;2022-07-23T15:34:44;10.40;;;5.97;;
24325;SDS011;12448;45.532;5.290;2022-07-23T15:37:09;7.80;;;5.72;;
24325;SDS011;12448;45.532;5.290;2022-07-23T15:39:35;7.47;;;5.85;;
24325;SDS011;12448;45.532;5.290;2022-07-23T15:42:01;7.07;;;6.10;;
24325;SDS011;12448;45.532;5.290;2022-07-23T15:44:27;8.73;;;5.80;;